createdAt,value
2023-04-29T00:00:12.241Z,8.46
2023-04-29T00:02:39.284Z,8.45
2023-04-29T00:05:06.997Z,8.44
2023-04-29T00:07:34.251Z,8.42
2023-04-29T00:10:01.345Z,8.44
2023-04-29T00:12:32.052Z,8.39
2023-04-29T00:15:00.130Z,8.38
2023-04-29T00:17:27.127Z,8.37
2023-04-29T00:19:54.323Z,8.32
2023-04-29T00:22:22.750Z,8.30
2023-04-29T00:24:50.620Z,8.29
2023-04-29T00:27:17.855Z,8.29
2023-04-29T00:29:45.099Z,8.28
2023-04-29T00:32:12.273Z,8.32
2023-04-29T00:34:39.118Z,8.30
2023-04-29T00:37:05.931Z,8.24
2023-04-29T00:39:32.881Z,8.22
2023-04-29T00:42:00.023Z,8.18
2023-04-29T00:44:26.847Z,8.17
2023-04-29T00:46:53.613Z,8.18
2023-04-29T00:49:20.788Z,8.19
2023-04-29T00:51:48.052Z,8.20
2023-04-29T00:54:16.115Z,8.24
2023-04-29T00:56:46.301Z,8.23
2023-04-29T00:59:15.468Z,8.21
2023-04-29T01:01:42.316Z,8.24
2023-04-29T01:04:10.258Z,8.22
2023-04-29T01:07:02.350Z,8.20
2023-04-29T01:09:35.240Z,8.21
2023-04-29T01:12:19.471Z,8.20
2023-04-29T01:14:53.409Z,8.21
2023-04-29T01:17:26.273Z,8.19
2023-04-29T01:19:58.949Z,8.20
2023-04-29T01:22:25.920Z,8.15
2023-04-29T01:24:52.838Z,8.09
2023-04-29T01:27:23.571Z,8.09
2023-04-29T01:30:02.488Z,8.11
2023-04-29T01:32:46.510Z,8.06
2023-04-29T01:35:45.821Z,8.05
2023-04-29T01:38:19.172Z,8.03
2023-04-29T01:41:18.339Z,8.05
2023-04-29T01:43:52.201Z,8.02
2023-04-29T01:46:22.773Z,8.04
2023-04-29T01:48:55.546Z,8.02
2023-04-29T01:51:22.499Z,8.02
2023-04-29T01:53:49.854Z,8.02
2023-04-29T01:56:18.170Z,8.02
2023-04-29T01:59:14.978Z,8.03
2023-04-29T02:02:07.636Z,8.04
2023-04-29T02:04:37.991Z,8.03
2023-04-29T02:07:04.938Z,8.00
2023-04-29T02:09:31.837Z,8.01
2023-04-29T02:12:06.285Z,8.00
2023-04-29T02:14:36.214Z,8.00
2023-04-29T02:17:04.900Z,7.92
2023-04-29T02:19:31.859Z,7.96
2023-04-29T02:21:58.812Z,7.99
2023-04-29T02:24:26.363Z,7.94
2023-04-29T02:26:53.674Z,7.94
2023-04-29T02:29:20.647Z,7.94
2023-04-29T02:31:47.807Z,7.97
2023-04-29T02:34:14.688Z,7.93
2023-04-29T02:36:41.557Z,7.94
2023-04-29T02:39:08.328Z,7.94
2023-04-29T02:41:35.227Z,7.94
2023-04-29T02:44:01.982Z,8.00
2023-04-29T02:46:29.260Z,7.97
2023-04-29T02:48:56.289Z,7.99
2023-04-29T02:51:23.420Z,7.98
2023-04-29T02:53:50.412Z,7.93
2023-04-29T02:56:17.209Z,7.93
2023-04-29T02:58:43.987Z,7.93
2023-04-29T03:01:11.330Z,7.92
2023-04-29T03:03:38.231Z,7.92
2023-04-29T03:06:05.396Z,7.86
2023-04-29T03:08:32.861Z,7.85
2023-04-29T03:10:59.965Z,7.87
2023-04-29T03:13:26.834Z,7.91
2023-04-29T03:15:54.133Z,7.89
2023-04-29T03:18:20.936Z,7.87
2023-04-29T03:20:48.094Z,7.92
2023-04-29T03:23:15.436Z,7.91
2023-04-29T03:25:42.434Z,7.83
2023-04-29T03:28:09.242Z,7.85
2023-04-29T03:30:37.397Z,7.85
2023-04-29T03:33:04.474Z,7.81
2023-04-29T03:35:32.153Z,7.69
2023-04-29T03:38:22.097Z,7.60
2023-04-29T03:40:49.352Z,7.59
2023-04-29T03:43:17.261Z,7.61
2023-04-29T03:45:44.392Z,7.65
2023-04-29T03:48:13.249Z,7.57
2023-04-29T03:50:40.202Z,7.59
2023-04-29T03:53:07.148Z,7.54
2023-04-29T03:55:34.502Z,7.42
2023-04-29T03:58:01.541Z,7.38
2023-04-29T04:00:31.235Z,7.44
2023-04-29T04:03:02.734Z,7.49
2023-04-29T04:05:31.894Z,7.50
2023-04-29T04:08:04.886Z,7.57
2023-04-29T04:10:50.601Z,7.58
2023-04-29T04:13:30.876Z,7.56
2023-04-29T04:15:58.294Z,7.47
2023-04-29T04:18:25.147Z,7.42
2023-04-29T04:20:52.102Z,7.42
2023-04-29T04:23:18.868Z,7.49
2023-04-29T04:25:49.536Z,7.43
2023-04-29T04:28:42.822Z,7.42
2023-04-29T04:31:15.911Z,7.44
2023-04-29T04:33:42.775Z,7.52
2023-04-29T04:36:09.578Z,7.60
2023-04-29T04:38:36.927Z,7.60
2023-04-29T04:41:08.298Z,7.65
2023-04-29T04:43:37.583Z,7.61
2023-04-29T04:46:13.642Z,7.62
2023-04-29T04:48:49.690Z,7.61
2023-04-29T04:51:16.770Z,7.60
2023-04-29T04:53:43.712Z,7.57
2023-04-29T04:56:18.701Z,7.62
2023-04-29T04:58:46.622Z,7.61
2023-04-29T05:01:14.885Z,7.61
2023-04-29T05:03:42.081Z,7.61
2023-04-29T05:06:09.161Z,7.60
2023-04-29T05:08:36.720Z,7.56
2023-04-29T05:11:05.030Z,7.56
2023-04-29T05:13:34.032Z,7.55
2023-04-29T05:16:06.222Z,7.54
2023-04-29T05:18:34.738Z,7.56
2023-04-29T05:21:01.720Z,7.55
2023-04-29T05:23:28.689Z,7.54
2023-04-29T05:25:56.220Z,7.53
2023-04-29T05:28:23.234Z,7.50
2023-04-29T05:30:52.063Z,7.50
2023-04-29T05:33:19.170Z,7.47
2023-04-29T05:35:46.415Z,7.40
2023-04-29T05:38:13.308Z,7.42
2023-04-29T05:40:41.746Z,7.45
2023-04-29T05:43:27.996Z,7.43
2023-04-29T05:45:56.741Z,7.42
2023-04-29T05:48:25.141Z,7.44
2023-04-29T05:50:52.353Z,7.43
2023-04-29T05:53:19.122Z,7.40
2023-04-29T05:55:46.929Z,7.46
2023-04-29T05:58:15.275Z,7.49
2023-04-29T06:00:43.845Z,7.49
2023-04-29T06:03:17.398Z,7.50
2023-04-29T06:05:44.743Z,7.53
2023-04-29T06:08:33.413Z,7.52
2023-04-29T06:11:11.277Z,7.54
2023-04-29T06:13:40.094Z,7.54
2023-04-29T06:16:07.951Z,7.55
2023-04-29T06:18:35.190Z,7.54
2023-04-29T06:21:01.984Z,7.47
2023-04-29T06:23:28.826Z,7.49
2023-04-29T06:25:56.246Z,7.52
2023-04-29T06:28:23.499Z,7.53
2023-04-29T06:30:50.301Z,7.53
2023-04-29T06:33:18.341Z,7.55
2023-04-29T06:35:45.182Z,7.50
2023-04-29T06:38:31.594Z,7.52
2023-04-29T06:41:14.409Z,7.53
2023-04-29T06:43:53.574Z,7.50
2023-04-29T06:46:39.461Z,7.49
2023-04-29T06:49:28.998Z,7.52
2023-04-29T06:51:56.233Z,7.53
2023-04-29T06:54:27.702Z,7.55
2023-04-29T06:56:54.853Z,7.55
2023-04-29T06:59:21.739Z,7.55
2023-04-29T07:01:49.941Z,7.58
2023-04-29T07:04:19.801Z,7.58
2023-04-29T07:06:48.263Z,7.58
2023-04-29T07:09:15.170Z,7.60
2023-04-29T07:11:42.571Z,7.59
2023-04-29T07:14:09.866Z,7.61
2023-04-29T07:16:36.707Z,7.60
2023-04-29T07:19:03.694Z,7.61
2023-04-29T07:21:31.401Z,7.61
2023-04-29T07:24:00.852Z,7.64
2023-04-29T07:26:28.785Z,7.63
2023-04-29T07:28:55.780Z,7.64
2023-04-29T07:31:24.300Z,7.68
2023-04-29T07:33:51.927Z,7.65
2023-04-29T07:36:19.032Z,7.64
2023-04-29T07:38:46.180Z,7.67
2023-04-29T07:41:13.839Z,7.67
2023-04-29T07:43:42.368Z,7.67
2023-04-29T07:46:09.778Z,7.65
2023-04-29T07:48:39.445Z,7.64
2023-04-29T07:51:07.242Z,7.68
2023-04-29T07:53:34.010Z,7.63
2023-04-29T07:56:06.048Z,7.60
2023-04-29T07:58:33.075Z,7.60
2023-04-29T08:01:12.471Z,7.58
2023-04-29T08:03:42.099Z,7.54
2023-04-29T08:06:10.556Z,7.54
2023-04-29T08:08:37.610Z,7.57
2023-04-29T08:11:04.701Z,7.56
2023-04-29T08:13:31.766Z,7.56
2023-04-29T08:15:58.580Z,7.55
2023-04-29T08:18:25.534Z,7.54
2023-04-29T08:20:52.444Z,7.55
2023-04-29T08:23:19.309Z,7.58
2023-04-29T08:25:46.326Z,7.60
2023-04-29T08:28:13.489Z,7.61
2023-04-29T08:30:43.082Z,7.59
2023-04-29T08:33:10.350Z,7.63
2023-04-29T08:35:37.762Z,7.63
2023-04-29T08:38:06.745Z,7.65
2023-04-29T08:40:51.969Z,7.63
2023-04-29T08:43:20.043Z,7.64
2023-04-29T08:45:49.162Z,7.69
2023-04-29T08:48:17.597Z,7.70
2023-04-29T08:50:45.260Z,7.71
2023-04-29T08:53:14.153Z,7.69
2023-04-29T08:55:45.907Z,7.72
2023-04-29T08:58:14.738Z,7.70
2023-04-29T09:00:43.636Z,7.69
2023-04-29T09:03:13.463Z,7.70
2023-04-29T09:05:43.344Z,7.73
2023-04-29T09:08:12.509Z,7.70
2023-04-29T09:10:42.191Z,7.70
2023-04-29T09:13:09.539Z,7.73
2023-04-29T09:15:42.694Z,7.71
2023-04-29T09:18:09.624Z,7.70
2023-04-29T09:20:36.477Z,7.69
2023-04-29T09:23:04.763Z,7.68
2023-04-29T09:25:31.887Z,7.68
2023-04-29T09:27:58.722Z,7.69
2023-04-29T09:30:27.008Z,7.67
2023-04-29T09:33:06.165Z,7.71
2023-04-29T09:35:33.081Z,7.76
2023-04-29T09:38:10.067Z,7.76
2023-04-29T09:40:50.055Z,7.74
2023-04-29T09:43:24.234Z,7.75
2023-04-29T09:45:51.279Z,7.77
2023-04-29T09:48:18.688Z,7.77
2023-04-29T09:51:04.156Z,7.76
2023-04-29T09:53:31.923Z,7.72
2023-04-29T09:56:03.826Z,7.73
2023-04-29T09:58:39.148Z,7.78
2023-04-29T10:01:07.499Z,7.78
2023-04-29T10:03:37.021Z,7.81
2023-04-29T10:06:06.620Z,7.82
2023-04-29T10:08:34.729Z,7.85
2023-04-29T10:11:03.466Z,7.83
2023-04-29T10:13:30.734Z,7.88
2023-04-29T10:16:16.118Z,7.90
2023-04-29T10:18:49.434Z,7.94
2023-04-29T10:21:18.601Z,7.96
2023-04-29T10:23:46.295Z,7.98
2023-04-29T10:26:15.289Z,8.00
2023-04-29T10:28:46.065Z,7.97
2023-04-29T10:31:13.734Z,7.98
2023-04-29T10:33:46.105Z,7.99
2023-04-29T10:36:13.331Z,8.03
2023-04-29T10:38:45.817Z,8.02
2023-04-29T10:41:23.169Z,8.04
2023-04-29T10:43:50.638Z,7.99
2023-04-29T10:46:17.467Z,8.03
2023-04-29T10:48:45.232Z,8.04
2023-04-29T10:51:12.322Z,8.05
2023-04-29T10:53:59.758Z,8.02
2023-04-29T10:56:51.079Z,8.02
2023-04-29T10:59:23.000Z,8.06
2023-04-29T11:01:54.024Z,8.08
2023-04-29T11:04:22.510Z,8.14
2023-04-29T11:06:54.443Z,8.12
2023-04-29T11:09:22.571Z,8.12
2023-04-29T11:12:06.258Z,8.16
2023-04-29T11:14:42.258Z,8.15
2023-04-29T11:17:16.969Z,8.17
2023-04-29T11:19:50.361Z,8.18
2023-04-29T11:22:23.085Z,8.17
2023-04-29T11:24:54.396Z,8.18
2023-04-29T11:27:25.646Z,8.17
2023-04-29T11:29:58.300Z,8.20
2023-04-29T11:32:31.273Z,8.20
2023-04-29T11:35:15.687Z,8.23
2023-04-29T11:37:45.401Z,8.27
2023-04-29T11:40:13.393Z,8.28
2023-04-29T11:42:49.191Z,8.30
2023-04-29T11:45:19.591Z,8.28
2023-04-29T11:47:47.922Z,8.26
2023-04-29T11:50:19.172Z,8.28
2023-04-29T11:52:50.094Z,8.32
2023-04-29T11:55:17.159Z,8.34
2023-04-29T11:57:44.422Z,8.38
2023-04-29T12:00:13.086Z,8.42
2023-04-29T12:02:44.004Z,8.42
2023-04-29T12:05:13.431Z,8.44
2023-04-29T12:07:40.663Z,8.39
2023-04-29T12:10:11.814Z,8.42
2023-04-29T12:12:41.491Z,8.44
2023-04-29T12:15:10.353Z,8.45
2023-04-29T12:17:38.828Z,8.46
2023-04-29T12:20:07.772Z,8.50
2023-04-29T12:22:35.358Z,8.49
2023-04-29T12:25:06.063Z,8.47
2023-04-29T12:27:34.560Z,8.51
2023-04-29T12:30:01.559Z,8.50
2023-04-29T12:32:28.582Z,8.51
2023-04-29T12:34:55.901Z,8.52
2023-04-29T12:37:26.296Z,8.56
2023-04-29T12:39:55.645Z,8.56
2023-04-29T12:42:22.495Z,8.55
2023-04-29T12:44:49.554Z,8.53
2023-04-29T12:47:17.231Z,8.58
2023-04-29T12:49:46.312Z,8.60
2023-04-29T12:52:13.514Z,8.63
2023-04-29T12:54:44.131Z,8.61
2023-04-29T12:57:11.970Z,8.61
2023-04-29T12:59:39.791Z,8.62
2023-04-29T13:02:06.799Z,8.61
2023-04-29T13:04:33.903Z,8.62
2023-04-29T13:07:01.150Z,8.62
2023-04-29T13:09:28.174Z,8.64
2023-04-29T13:11:55.041Z,8.67
2023-04-29T13:14:22.371Z,8.68
2023-04-29T13:16:49.478Z,8.70
2023-04-29T13:19:32.043Z,8.71
2023-04-29T13:22:03.310Z,8.70
2023-04-29T13:24:30.344Z,8.68
2023-04-29T13:26:58.217Z,8.71
2023-04-29T13:29:24.956Z,8.71
2023-04-29T13:31:51.788Z,8.72
2023-04-29T13:34:18.828Z,8.74
2023-04-29T13:36:46.216Z,8.76
2023-04-29T13:39:14.823Z,8.75
2023-04-29T13:41:45.537Z,8.79
2023-04-29T13:44:23.618Z,8.81
2023-04-29T13:46:52.456Z,8.79
2023-04-29T13:49:42.401Z,8.82
2023-04-29T13:52:42.827Z,8.83
2023-04-29T13:59:55.340Z,8.86
2023-04-29T14:02:25.789Z,8.89
2023-04-29T14:04:54.008Z,8.90
2023-04-29T14:07:21.275Z,8.92
2023-04-29T14:09:49.398Z,8.93
2023-04-29T14:12:16.196Z,8.94
2023-04-29T14:14:43.139Z,8.97
2023-04-29T14:17:09.928Z,9.00
2023-04-29T14:19:36.788Z,9.04
2023-04-29T14:22:03.708Z,9.07
2023-04-29T14:24:31.124Z,9.06
2023-04-29T14:26:58.031Z,9.05
2023-04-29T14:29:25.027Z,9.03
2023-04-29T14:31:51.955Z,9.01
2023-04-29T14:34:19.813Z,9.02
2023-04-29T14:36:46.835Z,9.01
2023-04-29T14:39:13.739Z,9.03
2023-04-29T14:41:40.484Z,9.04
2023-04-29T14:44:07.331Z,9.03
2023-04-29T14:46:34.797Z,9.04
2023-04-29T14:49:02.215Z,9.06
2023-04-29T14:51:29.497Z,9.07
2023-04-29T14:53:56.562Z,9.07
2023-04-29T14:56:23.318Z,9.09
2023-04-29T14:58:50.290Z,9.08
2023-04-29T15:01:17.104Z,9.08
2023-04-29T15:03:45.037Z,9.08
2023-04-29T15:06:13.094Z,9.10
2023-04-29T15:08:40.126Z,9.12
2023-04-29T15:11:06.985Z,9.17
2023-04-29T15:13:34.115Z,9.14
2023-04-29T15:16:00.954Z,9.14
2023-04-29T15:18:27.901Z,9.18
2023-04-29T15:20:54.762Z,9.17
2023-04-29T15:23:21.704Z,9.18
2023-04-29T15:25:48.558Z,9.18
2023-04-29T15:28:15.705Z,9.17
2023-04-29T15:30:42.688Z,9.17
2023-04-29T15:33:09.775Z,9.20
2023-04-29T15:35:36.909Z,9.21
2023-04-29T15:38:03.877Z,9.20
2023-04-29T15:40:30.748Z,9.20
2023-04-29T15:42:57.761Z,9.21
2023-04-29T15:45:24.706Z,9.20
2023-04-29T15:47:51.615Z,9.23
2023-04-29T15:50:18.460Z,9.21
2023-04-29T15:52:45.348Z,9.22
2023-04-29T15:55:12.405Z,9.20
2023-04-29T15:57:42.788Z,9.22
2023-04-29T16:00:10.378Z,9.22
2023-04-29T16:02:37.214Z,9.22
2023-04-29T16:05:04.402Z,9.21
2023-04-29T16:07:31.326Z,9.20
2023-04-29T16:09:58.357Z,9.22
2023-04-29T16:12:25.215Z,9.20
2023-04-29T16:14:52.276Z,9.21
2023-04-29T16:17:19.193Z,9.24
2023-04-29T16:19:46.108Z,9.23
2023-04-29T16:22:12.871Z,9.22
2023-04-29T16:24:39.963Z,9.26
2023-04-29T16:27:06.697Z,9.24
2023-04-29T16:29:33.707Z,9.22
2023-04-29T16:32:00.656Z,9.21
2023-04-29T16:34:27.557Z,9.21
2023-04-29T16:36:54.337Z,9.21
2023-04-29T16:39:21.275Z,9.20
2023-04-29T16:41:48.317Z,9.19
2023-04-29T16:44:15.376Z,9.20
2023-04-29T16:46:42.498Z,9.18
2023-04-29T16:49:09.365Z,9.20
2023-04-29T16:51:36.318Z,9.19
2023-04-29T16:54:03.164Z,9.21
2023-04-29T16:56:29.907Z,9.24
2023-04-29T16:58:57.053Z,9.27
2023-04-29T17:01:23.919Z,9.24
2023-04-29T17:03:50.982Z,9.25
2023-04-29T17:06:17.930Z,9.23
2023-04-29T17:08:45.516Z,9.23
2023-04-29T17:11:12.484Z,9.24
2023-04-29T17:13:39.564Z,9.24
2023-04-29T17:16:07.534Z,9.23
2023-04-29T17:18:34.518Z,9.24
2023-04-29T17:21:02.836Z,9.24
2023-04-29T17:23:30.776Z,9.23
2023-04-29T17:25:57.749Z,9.21
2023-04-29T17:28:25.076Z,9.20
2023-04-29T17:30:55.640Z,9.21
2023-04-29T17:33:22.677Z,9.19
2023-04-29T17:35:49.485Z,9.18
2023-04-29T17:38:16.582Z,9.18
2023-04-29T17:40:43.749Z,9.18
2023-04-29T17:43:10.799Z,9.20
2023-04-29T17:45:40.555Z,9.20
2023-04-29T17:48:07.781Z,9.18
2023-04-29T17:50:34.673Z,9.19
2023-04-29T17:53:01.669Z,9.18
2023-04-29T17:55:28.454Z,9.16
2023-04-29T17:57:56.572Z,9.18
2023-04-29T18:00:23.670Z,9.17
2023-04-29T18:02:50.691Z,9.17
2023-04-29T18:05:17.793Z,9.16
2023-04-29T18:07:44.639Z,9.17
2023-04-29T18:10:11.551Z,9.18
2023-04-29T18:12:38.431Z,9.17
2023-04-29T18:15:06.363Z,9.17
2023-04-29T18:17:33.841Z,9.16
2023-04-29T18:20:00.921Z,9.14
2023-04-29T18:22:27.752Z,9.10
2023-04-29T18:24:54.489Z,9.11
2023-04-29T18:27:21.942Z,9.08
2023-04-29T18:29:48.815Z,9.10
2023-04-29T18:32:16.111Z,9.08
2023-04-29T18:34:43.072Z,9.06
2023-04-29T18:37:10.042Z,9.07
2023-04-29T18:39:36.832Z,9.07
2023-04-29T18:42:06.647Z,9.04
2023-04-29T18:44:33.636Z,9.03
2023-04-29T18:47:00.470Z,9.04
2023-04-29T18:49:27.572Z,9.04
2023-04-29T18:51:54.313Z,9.05
2023-04-29T18:54:21.982Z,9.06
2023-04-29T18:56:49.893Z,9.03
2023-04-29T18:59:19.744Z,9.07
2023-04-29T19:01:48.366Z,9.04
2023-04-29T19:04:16.149Z,9.05
2023-04-29T19:06:43.326Z,9.07
2023-04-29T19:09:11.408Z,9.07
2023-04-29T19:11:38.388Z,9.07
2023-04-29T19:14:05.999Z,9.05
2023-04-29T19:16:34.812Z,9.04
2023-04-29T19:19:04.245Z,9.05
2023-04-29T19:21:33.413Z,9.04
2023-04-29T19:24:00.584Z,9.03
2023-04-29T19:26:27.413Z,9.02
2023-04-29T19:28:54.737Z,9.03
2023-04-29T19:31:21.751Z,9.02
2023-04-29T19:33:48.848Z,9.01
2023-04-29T19:36:15.700Z,9.04
2023-04-29T19:38:42.702Z,8.98
2023-04-29T19:41:09.797Z,8.98
2023-04-29T19:43:36.687Z,9.00
2023-04-29T19:46:03.591Z,8.97
2023-04-29T19:48:30.947Z,9.00
2023-04-29T19:50:59.796Z,9.00
2023-04-29T19:53:27.651Z,8.98
2023-04-29T19:55:54.446Z,8.98
2023-04-29T19:58:21.489Z,8.96
2023-04-29T20:00:48.644Z,8.92
2023-04-29T20:03:16.127Z,8.93
2023-04-29T20:05:43.372Z,8.93
2023-04-29T20:08:10.328Z,8.91
2023-04-29T20:10:37.260Z,8.93
2023-04-29T20:13:04.122Z,8.95
2023-04-29T20:15:30.945Z,8.91
2023-04-29T20:17:58.342Z,8.90
2023-04-29T20:20:25.825Z,8.92
2023-04-29T20:22:52.805Z,8.92
2023-04-29T20:25:20.651Z,8.91
2023-04-29T20:27:47.589Z,8.90
2023-04-29T20:30:14.428Z,8.90
2023-04-29T20:32:41.518Z,8.89
2023-04-29T20:35:08.454Z,8.89
2023-04-29T20:37:36.282Z,8.90
2023-04-29T20:40:06.451Z,8.89
2023-04-29T20:42:33.550Z,8.86
2023-04-29T20:45:00.394Z,8.86
2023-04-29T20:47:28.486Z,8.88
2023-04-29T20:49:55.803Z,8.89
2023-04-29T20:52:23.961Z,8.89
2023-04-29T20:54:52.579Z,8.88
2023-04-29T20:57:19.554Z,8.87
2023-04-29T20:59:46.475Z,8.85
2023-04-29T21:02:13.423Z,8.87
2023-04-29T21:04:40.455Z,8.86
2023-04-29T21:07:07.704Z,8.83
2023-04-29T21:09:35.846Z,8.83
2023-04-29T21:12:06.265Z,8.83
2023-04-29T21:14:33.799Z,8.87
2023-04-29T21:17:00.972Z,8.86
2023-04-29T21:19:27.979Z,8.86
2023-04-29T21:21:54.725Z,8.85
2023-04-29T21:24:21.600Z,8.83
2023-04-29T21:26:50.362Z,8.83
2023-04-29T21:29:17.326Z,8.83
2023-04-29T21:31:44.241Z,8.83
2023-04-29T21:34:11.272Z,8.80
2023-04-29T21:36:38.034Z,8.81
2023-04-29T21:39:06.247Z,8.81
2023-04-29T21:41:37.508Z,8.82
2023-04-29T21:44:06.116Z,8.81
2023-04-29T21:46:34.107Z,8.80
2023-04-29T21:49:02.268Z,8.78
2023-04-29T21:51:29.405Z,8.78
2023-04-29T21:53:56.390Z,8.78
2023-04-29T21:56:24.598Z,8.77
2023-04-29T21:58:51.573Z,8.77
2023-04-29T22:01:39.637Z,8.77
2023-04-29T22:04:06.882Z,8.79
2023-04-29T22:06:34.548Z,8.80
2023-04-29T22:09:02.536Z,8.78
2023-04-29T22:11:29.474Z,8.77
2023-04-29T22:13:56.524Z,8.77
2023-04-29T22:16:23.684Z,8.77
2023-04-29T22:18:51.297Z,8.76
2023-04-29T22:21:18.952Z,8.76
2023-04-29T22:23:46.548Z,8.76
2023-04-29T22:26:13.321Z,8.76
2023-04-29T22:28:40.486Z,8.75
2023-04-29T22:31:07.291Z,8.73
2023-04-29T22:33:35.068Z,8.73
2023-04-29T22:36:02.284Z,8.73
2023-04-29T22:38:29.550Z,8.71
2023-04-29T22:40:56.496Z,8.74
2023-04-29T22:43:23.403Z,8.72
2023-04-29T22:45:53.627Z,8.71
2023-04-29T22:48:20.929Z,8.74
2023-04-29T22:50:55.401Z,8.74
2023-04-29T22:53:23.060Z,8.75
2023-04-29T22:55:54.372Z,8.72
2023-04-29T22:58:21.949Z,8.70
2023-04-29T23:00:54.184Z,8.71
2023-04-29T23:03:21.249Z,8.73
2023-04-29T23:05:48.230Z,8.72
2023-04-29T23:08:15.219Z,8.71
2023-04-29T23:10:46.797Z,8.71
2023-04-29T23:13:13.748Z,8.71
2023-04-29T23:15:40.991Z,8.72
2023-04-29T23:18:08.079Z,8.72
2023-04-29T23:20:34.857Z,8.71
2023-04-29T23:23:01.686Z,8.70
2023-04-29T23:25:28.563Z,8.72
2023-04-29T23:27:55.775Z,8.72
2023-04-29T23:30:22.799Z,8.72
2023-04-29T23:32:49.722Z,8.68
2023-04-29T23:35:16.525Z,8.71
2023-04-29T23:37:43.467Z,8.71
2023-04-29T23:40:10.611Z,8.71
2023-04-29T23:42:37.427Z,8.68
2023-04-29T23:45:04.487Z,8.72
2023-04-29T23:47:31.464Z,8.73
2023-04-29T23:49:58.256Z,8.71
2023-04-29T23:52:25.336Z,8.71
2023-04-29T23:54:52.077Z,8.73
2023-04-29T23:57:18.925Z,8.74
2023-04-29T23:59:45.729Z,8.72
